createdAt,value
2022-10-10T00:01:37.453Z,12.70
2022-10-10T00:04:06.479Z,13.30
2022-10-10T00:06:34.763Z,12.90
2022-10-10T00:09:05.812Z,11.90
2022-10-10T00:11:35.470Z,12.80
2022-10-10T00:14:03.938Z,14.00
2022-10-10T00:16:32.115Z,14.60
2022-10-10T00:18:59.995Z,14.50
2022-10-10T00:21:28.898Z,14.90
2022-10-10T00:23:56.761Z,14.40
2022-10-10T00:26:24.884Z,14.10
2022-10-10T00:28:55.085Z,14.10
2022-10-10T00:31:23.106Z,14.10
2022-10-10T00:33:51.642Z,13.90
2022-10-10T00:36:21.455Z,14.20
2022-10-10T00:38:49.497Z,13.20
2022-10-10T00:41:17.978Z,13.50
2022-10-10T00:44:01.938Z,14.10
2022-10-10T00:46:29.798Z,15.20
2022-10-10T00:48:57.918Z,13.30
2022-10-10T00:51:26.046Z,13.50
2022-10-10T00:54:02.401Z,12.90
2022-10-10T00:56:46.717Z,13.00
2022-10-10T00:59:15.466Z,13.40
2022-10-10T01:01:43.548Z,12.80
2022-10-10T01:04:30.951Z,11.70
2022-10-10T01:07:00.889Z,12.40
2022-10-10T01:09:29.863Z,12.40
2022-10-10T01:12:20.028Z,12.00
2022-10-10T01:15:02.944Z,12.00
2022-10-10T01:17:37.581Z,11.30
2022-10-10T01:20:24.252Z,10.80
2022-10-10T01:23:29.501Z,11.20
2022-10-10T01:26:32.670Z,12.70
2022-10-10T01:29:18.601Z,12.50
2022-10-10T01:31:51.348Z,12.40
2022-10-10T01:34:37.921Z,12.80
2022-10-10T01:37:37.465Z,12.30
2022-10-10T01:40:20.451Z,12.10
2022-10-10T01:42:56.408Z,11.70
2022-10-10T01:45:25.505Z,11.90
2022-10-10T01:47:57.099Z,11.50
2022-10-10T01:50:26.845Z,11.00
2022-10-10T01:52:57.923Z,12.00
2022-10-10T01:55:44.419Z,11.20
2022-10-10T01:58:36.301Z,13.80
2022-10-10T02:01:11.621Z,12.50
2022-10-10T02:03:45.659Z,12.10
2022-10-10T02:06:25.655Z,12.30
2022-10-10T02:09:00.578Z,11.40
2022-10-10T02:11:35.509Z,10.80
2022-10-10T02:14:14.641Z,10.70
2022-10-10T02:16:50.032Z,11.10
2022-10-10T02:19:21.331Z,11.50
2022-10-10T02:21:52.820Z,12.10
2022-10-10T02:24:24.079Z,12.60
2022-10-10T02:27:18.538Z,12.20
2022-10-10T02:29:49.094Z,11.30
2022-10-10T02:32:26.253Z,11.70
2022-10-10T02:34:58.024Z,10.80
2022-10-10T02:37:27.756Z,10.80
2022-10-10T02:39:59.675Z,10.80
2022-10-10T02:42:29.441Z,10.50
2022-10-10T02:44:57.858Z,11.60
2022-10-10T02:47:25.928Z,11.10
2022-10-10T02:49:53.818Z,11.90
2022-10-10T02:52:21.893Z,11.40
2022-10-10T02:54:49.817Z,11.00
2022-10-10T02:57:17.777Z,11.00
2022-10-10T02:59:45.869Z,10.30
2022-10-10T03:02:13.790Z,10.10
2022-10-10T03:04:42.360Z,10.80
2022-10-10T03:07:10.889Z,11.10
2022-10-10T03:09:38.717Z,11.50
2022-10-10T03:12:06.652Z,10.60
2022-10-10T03:14:34.718Z,10.40
2022-10-10T03:17:02.822Z,11.70
2022-10-10T03:19:30.798Z,10.80
2022-10-10T03:21:58.760Z,10.50
2022-10-10T03:24:28.072Z,11.10
2022-10-10T03:26:56.038Z,10.70
2022-10-10T03:29:25.438Z,10.50
2022-10-10T03:31:53.839Z,10.30
2022-10-10T03:34:21.857Z,10.50
2022-10-10T03:36:49.956Z,10.50
2022-10-10T03:39:18.017Z,10.60
2022-10-10T03:41:45.893Z,10.20
2022-10-10T03:44:13.765Z,11.00
2022-10-10T03:46:42.767Z,11.10
2022-10-10T03:49:11.250Z,11.50
2022-10-10T03:51:39.504Z,10.80
2022-10-10T03:54:07.487Z,10.10
2022-10-10T03:56:35.510Z,10.60
2022-10-10T03:59:04.106Z,10.40
2022-10-10T04:01:33.820Z,10.70
2022-10-10T04:04:02.717Z,10.80
2022-10-10T04:06:31.057Z,10.90
2022-10-10T04:08:59.244Z,11.40
2022-10-10T04:11:27.912Z,12.30
2022-10-10T04:13:55.788Z,11.10
2022-10-10T04:16:23.708Z,10.40
2022-10-10T04:18:51.639Z,10.90
2022-10-10T04:21:19.609Z,12.50
2022-10-10T04:23:47.826Z,34.90
2022-10-10T04:26:15.868Z,11.40
2022-10-10T04:28:44.226Z,11.30
2022-10-10T04:31:12.266Z,11.30
2022-10-10T04:33:40.187Z,12.00
2022-10-10T04:36:08.364Z,12.50
2022-10-10T04:38:36.896Z,10.60
2022-10-10T04:41:05.908Z,12.00
2022-10-10T04:43:37.672Z,12.90
2022-10-10T04:46:05.835Z,14.60
2022-10-10T04:48:33.931Z,28.90
2022-10-10T04:51:03.203Z,13.60
2022-10-10T04:53:38.687Z,15.30
2022-10-10T04:56:07.472Z,13.40
2022-10-10T04:58:36.239Z,13.10
2022-10-10T05:01:06.954Z,11.70
2022-10-10T05:03:35.027Z,11.00
2022-10-10T05:06:03.261Z,10.10
2022-10-10T05:08:32.811Z,11.20
2022-10-10T05:11:00.911Z,13.20
2022-10-10T05:13:31.375Z,12.20
2022-10-10T05:16:00.557Z,13.60
2022-10-10T05:18:28.635Z,13.40
2022-10-10T05:21:01.045Z,12.30
2022-10-10T05:23:32.504Z,12.70
2022-10-10T05:26:01.084Z,13.10
2022-10-10T05:28:30.533Z,15.60
2022-10-10T05:30:59.223Z,11.60
2022-10-10T05:33:27.866Z,12.70
2022-10-10T05:36:11.070Z,11.70
2022-10-10T05:38:41.056Z,13.10
2022-10-10T05:41:12.653Z,13.00
2022-10-10T05:43:40.737Z,11.50
2022-10-10T05:46:08.679Z,12.00
2022-10-10T05:48:37.346Z,11.30
2022-10-10T05:51:07.882Z,11.10
2022-10-10T05:53:36.421Z,11.00
2022-10-10T05:56:04.938Z,10.60
2022-10-10T05:58:35.250Z,12.70
2022-10-10T06:01:32.634Z,12.10
2022-10-10T06:04:14.724Z,12.90
2022-10-10T06:06:53.562Z,12.10
2022-10-10T06:09:25.044Z,11.30
2022-10-10T06:12:00.371Z,11.80
2022-10-10T06:14:30.688Z,11.20
2022-10-10T06:17:02.779Z,11.40
2022-10-10T06:19:33.560Z,12.60
2022-10-10T06:22:04.273Z,12.10
2022-10-10T06:24:32.469Z,13.30
2022-10-10T06:27:02.244Z,12.70
2022-10-10T06:29:31.039Z,12.40
2022-10-10T06:32:01.269Z,11.80
2022-10-10T06:34:29.489Z,11.40
2022-10-10T06:36:57.641Z,11.90
2022-10-10T06:39:25.995Z,28.30
2022-10-10T06:41:54.895Z,13.60
2022-10-10T06:44:23.529Z,12.30
2022-10-10T06:46:52.769Z,16.70
2022-10-10T06:49:20.892Z,13.60
2022-10-10T06:51:49.432Z,13.50
2022-10-10T06:54:19.221Z,12.40
2022-10-10T06:56:50.899Z,13.40
2022-10-10T06:59:20.418Z,14.20
2022-10-10T07:01:48.741Z,15.40
2022-10-10T07:04:16.927Z,15.30
2022-10-10T07:06:46.385Z,13.50
2022-10-10T07:09:14.509Z,16.40
2022-10-10T07:11:45.933Z,14.90
2022-10-10T07:14:16.563Z,16.10
2022-10-10T07:16:45.462Z,19.80
2022-10-10T07:19:13.473Z,16.10
2022-10-10T07:21:41.672Z,13.90
2022-10-10T07:24:09.845Z,14.50
2022-10-10T07:26:38.677Z,15.50
2022-10-10T07:29:06.976Z,17.60
2022-10-10T07:31:36.558Z,18.50
2022-10-10T07:34:07.661Z,20.40
2022-10-10T07:36:36.239Z,23.10
2022-10-10T07:39:04.826Z,23.90
2022-10-10T07:41:33.096Z,21.70
2022-10-10T07:44:02.223Z,19.20
2022-10-10T07:46:33.681Z,17.70
2022-10-10T07:49:03.946Z,13.80
2022-10-10T07:51:32.797Z,12.60
2022-10-10T07:54:02.455Z,11.40
2022-10-10T07:56:32.211Z,12.50
2022-10-10T07:59:01.128Z,12.80
2022-10-10T08:01:30.617Z,10.20
2022-10-10T08:03:59.450Z,10.40
2022-10-10T08:06:27.497Z,9.80
2022-10-10T08:08:56.033Z,10.70
2022-10-10T08:11:29.052Z,9.60
2022-10-10T08:13:57.124Z,9.20
2022-10-10T08:16:25.168Z,9.00
2022-10-10T08:18:53.487Z,9.30
2022-10-10T08:21:21.668Z,9.40
2022-10-10T08:23:52.490Z,9.20
2022-10-10T08:26:20.778Z,10.00
2022-10-10T08:28:49.253Z,10.20
2022-10-10T08:31:21.241Z,11.40
2022-10-10T08:33:51.201Z,9.80
2022-10-10T08:36:22.187Z,10.00
2022-10-10T08:38:53.378Z,11.50
2022-10-10T08:41:36.610Z,11.40
2022-10-10T08:44:14.392Z,13.50
2022-10-10T08:47:04.292Z,17.50
2022-10-10T08:49:45.425Z,20.10
2022-10-10T08:52:53.908Z,16.20
2022-10-10T08:57:59.601Z,17.10
2022-10-10T09:00:45.222Z,11.50
2022-10-10T09:03:26.563Z,17.30
2022-10-10T09:06:19.978Z,12.80
2022-10-10T09:08:53.983Z,12.90
2022-10-10T09:11:40.887Z,16.30
2022-10-10T09:14:45.585Z,12.60
2022-10-10T09:21:44.046Z,12.00
2022-10-10T09:24:43.566Z,13.20
2022-10-10T09:27:22.115Z,14.20
2022-10-10T09:29:56.987Z,14.20
2022-10-10T09:35:06.478Z,16.10
2022-10-10T09:37:47.688Z,15.10
2022-10-10T09:40:39.119Z,16.00
2022-10-10T09:43:22.938Z,21.40
2022-10-10T09:46:00.015Z,15.80
2022-10-10T09:48:36.077Z,13.80
2022-10-10T09:51:07.632Z,14.70
2022-10-10T09:53:44.971Z,16.20
2022-10-10T09:56:22.826Z,15.00
2022-10-10T09:58:53.934Z,16.10
2022-10-10T10:01:26.383Z,14.50
2022-10-10T10:04:27.819Z,14.90
2022-10-10T10:07:07.646Z,16.00
2022-10-10T10:09:36.627Z,15.00
2022-10-10T10:12:05.625Z,14.60
2022-10-10T10:14:39.305Z,13.80
2022-10-10T10:17:16.024Z,15.00
2022-10-10T10:19:46.637Z,13.20
2022-10-10T10:22:40.628Z,13.30
2022-10-10T10:25:33.974Z,12.90
2022-10-10T10:28:14.293Z,14.20
2022-10-10T10:30:44.009Z,13.10
2022-10-10T10:33:33.429Z,13.10
2022-10-10T10:36:25.535Z,13.30
2022-10-10T10:39:20.269Z,12.90
2022-10-10T10:42:21.504Z,13.20
2022-10-10T10:45:01.425Z,13.90
2022-10-10T10:47:52.138Z,13.20
2022-10-10T10:50:27.356Z,12.30
2022-10-10T10:56:08.979Z,13.60
2022-10-10T11:02:26.529Z,12.40
2022-10-10T11:05:39.912Z,13.30
2022-10-10T11:08:25.563Z,14.00
2022-10-10T11:11:16.926Z,11.90
2022-10-10T11:14:23.431Z,12.90
2022-10-10T11:16:59.039Z,12.10
2022-10-10T11:19:39.612Z,12.10
2022-10-10T11:22:23.876Z,11.30
2022-10-10T11:25:03.652Z,10.90
2022-10-10T11:27:47.241Z,11.20
2022-10-10T11:30:32.091Z,9.40
2022-10-10T11:33:19.314Z,8.70
2022-10-10T11:35:55.541Z,8.00
2022-10-10T11:38:45.070Z,8.30
2022-10-10T11:41:28.404Z,8.20
2022-10-10T11:44:30.651Z,8.60
2022-10-10T11:47:55.123Z,8.70
2022-10-10T11:50:35.157Z,9.10
2022-10-10T11:53:22.877Z,9.00
2022-10-10T11:56:19.940Z,9.80
2022-10-10T11:58:58.983Z,8.40
2022-10-10T12:01:33.879Z,8.40
2022-10-10T12:04:07.649Z,8.70
2022-10-10T12:07:11.672Z,9.10
2022-10-10T12:09:46.016Z,7.80
2022-10-10T12:12:21.246Z,10.50
2022-10-10T12:14:54.689Z,11.10
2022-10-10T12:17:40.475Z,10.90
2022-10-10T12:20:35.929Z,17.50
2022-10-10T12:23:14.350Z,8.60
2022-10-10T12:25:48.207Z,8.40
2022-10-10T12:28:25.581Z,23.90
2022-10-10T12:30:58.566Z,7.90
2022-10-10T12:33:34.046Z,7.60
2022-10-10T12:36:29.692Z,7.50
2022-10-10T12:39:18.925Z,6.90
2022-10-10T12:41:47.802Z,6.90
2022-10-10T12:44:53.682Z,7.00
2022-10-10T12:47:59.723Z,7.50
2022-10-10T12:51:12.878Z,6.80
2022-10-10T12:53:55.784Z,7.50
2022-10-10T12:56:59.140Z,9.70
2022-10-10T12:59:36.902Z,8.50
2022-10-10T13:02:22.876Z,9.40
2022-10-10T13:04:56.445Z,8.90
2022-10-10T13:07:25.693Z,7.10
2022-10-10T13:10:05.300Z,8.90
2022-10-10T13:12:45.952Z,9.00
2022-10-10T13:15:20.586Z,8.50
2022-10-10T13:17:49.805Z,7.10
2022-10-10T13:20:41.024Z,6.70
2022-10-10T13:23:21.575Z,8.30
2022-10-10T13:25:56.075Z,6.60
2022-10-10T13:28:25.460Z,6.60
2022-10-10T13:30:55.857Z,10.40
2022-10-10T13:33:30.877Z,6.30
2022-10-10T13:36:07.633Z,8.10
2022-10-10T13:38:36.192Z,6.90
2022-10-10T13:41:07.680Z,6.30
2022-10-10T13:43:36.946Z,6.80
2022-10-10T13:46:30.686Z,6.80
2022-10-10T13:49:02.081Z,6.40
2022-10-10T13:51:48.384Z,12.50
2022-10-10T13:54:41.574Z,10.20
2022-10-10T13:57:27.611Z,10.30
2022-10-10T14:00:33.762Z,9.90
2022-10-10T14:03:20.126Z,6.90
2022-10-10T14:05:48.233Z,7.70
2022-10-10T14:08:20.427Z,7.70
2022-10-10T14:11:07.812Z,7.50
2022-10-10T14:13:39.597Z,10.40
2022-10-10T14:16:18.116Z,11.30
2022-10-10T14:18:47.032Z,10.10
2022-10-10T14:21:15.473Z,8.50
2022-10-10T14:23:45.696Z,8.70
2022-10-10T14:26:20.020Z,10.70
2022-10-10T14:28:49.602Z,8.50
2022-10-10T14:31:19.037Z,7.40
2022-10-10T14:33:49.866Z,7.30
2022-10-10T14:36:18.675Z,7.60
2022-10-10T14:38:46.980Z,7.40
2022-10-10T14:41:17.592Z,10.30
2022-10-10T14:43:46.169Z,8.10
2022-10-10T14:46:19.982Z,8.10
2022-10-10T14:48:51.183Z,8.50
2022-10-10T14:51:33.880Z,8.80
2022-10-10T14:54:10.871Z,9.40
2022-10-10T14:57:09.505Z,7.90
2022-10-10T14:59:46.079Z,8.20
2022-10-10T15:02:22.248Z,8.60
2022-10-10T15:04:51.113Z,9.20
2022-10-10T15:07:19.755Z,9.00
2022-10-10T15:10:27.614Z,9.90
2022-10-10T15:12:43.017Z,40.20
2022-10-10T15:15:14.038Z,53.40
2022-10-10T15:17:48.779Z,10.70
2022-10-10T15:20:19.237Z,57.00
2022-10-10T15:22:47.264Z,56.80
2022-10-10T15:25:16.828Z,14.40
2022-10-10T15:27:47.528Z,11.20
2022-10-10T15:30:16.395Z,17.60
2022-10-10T15:32:45.532Z,18.40
2022-10-10T15:35:19.113Z,13.90
2022-10-10T15:37:47.975Z,12.00
2022-10-10T15:40:20.630Z,11.60
2022-10-10T15:42:50.403Z,10.90
2022-10-10T15:45:43.619Z,11.40
2022-10-10T15:48:07.776Z,10.90
2022-10-10T15:50:42.581Z,11.60
2022-10-10T15:55:46.011Z,13.20
2022-10-10T15:58:15.267Z,15.30
2022-10-10T16:00:45.093Z,17.60
2022-10-10T16:03:16.952Z,17.00
2022-10-10T16:05:45.543Z,13.80
2022-10-10T16:08:13.716Z,12.90
2022-10-10T16:10:43.353Z,13.00
2022-10-10T16:13:11.806Z,12.60
2022-10-10T16:15:40.826Z,12.20
2022-10-10T16:18:09.566Z,12.30
2022-10-10T16:20:39.316Z,17.60
2022-10-10T16:23:08.405Z,16.10
2022-10-10T16:25:36.887Z,15.90
2022-10-10T16:28:05.153Z,18.40
2022-10-10T16:30:33.449Z,17.40
2022-10-10T16:33:01.948Z,20.40
2022-10-10T16:35:30.078Z,18.30
2022-10-10T16:38:00.764Z,17.50
2022-10-10T16:40:30.410Z,15.60
2022-10-10T16:43:00.847Z,17.40
2022-10-10T16:45:29.449Z,17.70
2022-10-10T16:47:58.185Z,16.10
2022-10-10T16:50:26.359Z,16.60
2022-10-10T16:52:55.523Z,17.60
2022-10-10T16:55:23.648Z,16.60
2022-10-10T16:57:58.699Z,15.90
2022-10-10T17:02:54.977Z,15.20
2022-10-10T17:05:23.090Z,14.30
2022-10-10T17:07:52.054Z,14.70
2022-10-10T17:10:20.212Z,15.20
2022-10-10T17:12:48.289Z,16.00
2022-10-10T17:15:16.253Z,14.80
2022-10-10T17:17:45.952Z,16.10
2022-10-10T17:20:14.336Z,16.00
2022-10-10T17:22:42.724Z,18.20
2022-10-10T17:25:11.005Z,17.30
2022-10-10T17:27:42.158Z,16.00
2022-10-10T17:30:12.701Z,17.20
2022-10-10T17:32:42.737Z,16.90
2022-10-10T17:35:12.161Z,16.30
2022-10-10T17:37:44.844Z,16.70
2022-10-10T17:40:13.079Z,18.60
2022-10-10T17:42:41.167Z,16.10
2022-10-10T17:45:10.359Z,15.60
2022-10-10T17:47:38.814Z,16.00
2022-10-10T17:50:09.438Z,16.10
2022-10-10T17:52:37.448Z,16.20
2022-10-10T17:55:06.174Z,14.50
2022-10-10T17:57:36.714Z,15.50
2022-10-10T18:00:06.519Z,15.30
2022-10-10T18:02:34.801Z,14.20
2022-10-10T18:05:03.495Z,13.80
2022-10-10T18:07:31.735Z,14.40
2022-10-10T18:09:59.888Z,16.10
2022-10-10T18:12:27.916Z,14.30
2022-10-10T18:14:55.982Z,14.70
2022-10-10T18:17:26.309Z,13.50
2022-10-10T18:19:54.575Z,14.60
2022-10-10T18:22:23.723Z,13.40
2022-10-10T18:24:54.276Z,14.10
2022-10-10T18:27:22.846Z,13.90
2022-10-10T18:29:50.802Z,15.10
2022-10-10T18:32:18.892Z,14.90
2022-10-10T18:34:46.854Z,13.80
2022-10-10T18:37:15.892Z,15.60
2022-10-10T18:39:44.093Z,15.50
2022-10-10T18:42:14.804Z,14.00
2022-10-10T18:44:44.065Z,14.70
2022-10-10T18:47:12.891Z,16.10
2022-10-10T18:49:41.598Z,16.40
2022-10-10T18:52:10.558Z,16.10
2022-10-10T18:54:38.898Z,17.60
2022-10-10T18:57:07.189Z,16.80
2022-10-10T18:59:35.333Z,20.40
2022-10-10T19:02:03.346Z,17.30
2022-10-10T19:04:31.573Z,17.10
2022-10-10T19:07:02.157Z,18.00
2022-10-10T19:09:30.248Z,17.00
2022-10-10T19:11:58.209Z,18.20
2022-10-10T19:14:26.322Z,19.30
2022-10-10T19:16:55.316Z,19.70
2022-10-10T19:19:26.599Z,18.80
2022-10-10T19:21:54.829Z,19.60
2022-10-10T19:24:22.940Z,19.90
2022-10-10T19:26:54.971Z,18.20
2022-10-10T19:29:25.208Z,20.30
2022-10-10T19:31:54.537Z,20.70
2022-10-10T19:34:23.646Z,20.40
2022-10-10T19:36:51.711Z,20.80
2022-10-10T19:39:19.648Z,22.60
2022-10-10T19:41:48.170Z,21.10
2022-10-10T19:44:16.232Z,19.70
2022-10-10T19:46:44.634Z,20.90
2022-10-10T19:49:12.660Z,20.90
2022-10-10T19:51:40.585Z,19.70
2022-10-10T19:54:08.755Z,20.40
2022-10-10T19:56:39.043Z,22.70
2022-10-10T19:59:09.108Z,22.20
2022-10-10T20:01:37.304Z,22.10
2022-10-10T20:04:05.372Z,21.80
2022-10-10T20:06:39.718Z,20.20
2022-10-10T20:09:10.782Z,21.30
2022-10-10T20:11:39.888Z,22.50
2022-10-10T20:14:08.027Z,23.70
2022-10-10T20:16:36.092Z,25.00
2022-10-10T20:19:06.952Z,26.00
2022-10-10T20:21:35.360Z,24.10
2022-10-10T20:24:07.431Z,24.30
2022-10-10T20:26:36.634Z,24.20
2022-10-10T20:29:05.285Z,23.80
2022-10-10T20:31:35.762Z,24.70
2022-10-10T20:34:05.619Z,25.40
2022-10-10T20:36:35.634Z,24.90
2022-10-10T20:39:08.288Z,26.10
2022-10-10T20:41:38.357Z,26.90
2022-10-10T20:44:08.579Z,28.60
2022-10-10T20:46:39.267Z,29.00
2022-10-10T20:49:12.943Z,27.10
2022-10-10T20:51:48.128Z,25.20
2022-10-10T20:54:18.818Z,24.50
2022-10-10T20:56:50.914Z,24.50
2022-10-10T20:59:21.052Z,24.40
2022-10-10T21:01:51.910Z,26.10
2022-10-10T21:04:20.069Z,26.00
2022-10-10T21:06:48.129Z,26.20
2022-10-10T21:09:16.243Z,27.40
2022-10-10T21:11:48.717Z,24.60
2022-10-10T21:14:19.026Z,24.60
2022-10-10T21:16:50.592Z,24.60
2022-10-10T21:19:18.501Z,24.00
2022-10-10T21:21:46.877Z,22.40
2022-10-10T21:24:15.507Z,25.40
2022-10-10T21:26:45.476Z,25.40
2022-10-10T21:29:16.414Z,25.90
2022-10-10T21:31:44.531Z,30.00
2022-10-10T21:34:18.820Z,27.10
2022-10-10T21:36:46.891Z,25.70
2022-10-10T21:39:15.449Z,24.40
2022-10-10T21:41:43.730Z,24.10
2022-10-10T21:44:15.906Z,23.40
2022-10-10T21:46:43.884Z,25.70
2022-10-10T21:49:13.991Z,25.90
2022-10-10T21:51:45.750Z,26.60
2022-10-10T21:54:14.738Z,27.00
2022-10-10T21:56:42.552Z,24.90
2022-10-10T21:59:11.783Z,24.20
2022-10-10T22:01:39.738Z,23.40
2022-10-10T22:04:08.393Z,21.70
2022-10-10T22:06:36.400Z,22.30
2022-10-10T22:09:05.252Z,23.10
2022-10-10T22:11:34.870Z,22.80
2022-10-10T22:14:04.513Z,22.90
2022-10-10T22:16:33.148Z,24.60
2022-10-10T22:19:03.849Z,24.30
2022-10-10T22:21:34.717Z,22.90
2022-10-10T22:24:06.641Z,24.70
2022-10-10T22:26:35.375Z,22.80
2022-10-10T22:29:04.584Z,22.80
2022-10-10T22:31:35.655Z,22.30
2022-10-10T22:34:05.978Z,23.00
2022-10-10T22:36:34.069Z,22.50
2022-10-10T22:39:03.494Z,26.50
2022-10-10T22:41:31.751Z,26.30
2022-10-10T22:43:59.860Z,21.70
2022-10-10T22:46:27.832Z,22.10
2022-10-10T22:48:55.823Z,21.50
2022-10-10T22:51:23.869Z,20.30
2022-10-10T22:53:52.115Z,19.70
2022-10-10T22:56:20.756Z,20.70
2022-10-10T22:58:50.474Z,25.90
2022-10-10T23:01:21.649Z,28.40
2022-10-10T23:03:50.194Z,29.10
2022-10-10T23:06:18.125Z,29.10
2022-10-10T23:08:46.616Z,27.80
2022-10-10T23:11:16.127Z,26.60
2022-10-10T23:13:44.307Z,26.70
2022-10-10T23:16:15.033Z,26.80
2022-10-10T23:18:42.985Z,27.10
2022-10-10T23:21:11.026Z,28.50
2022-10-10T23:23:39.024Z,30.20
2022-10-10T23:26:09.072Z,31.50
2022-10-10T23:28:37.213Z,29.50
2022-10-10T23:31:08.148Z,29.60
2022-10-10T23:33:37.245Z,28.70
2022-10-10T23:36:10.856Z,28.70
2022-10-10T23:38:39.754Z,29.60
2022-10-10T23:41:09.103Z,30.70
2022-10-10T23:43:37.336Z,31.50
2022-10-10T23:46:05.755Z,33.50
2022-10-10T23:48:34.150Z,33.70
2022-10-10T23:51:02.073Z,31.10
2022-10-10T23:53:29.997Z,30.90
2022-10-10T23:55:57.823Z,31.30
2022-10-10T23:58:26.070Z,30.90
